Bryson City, NC

19:28 EDT le 25 mai 2015 (GMT -0400)
Andrews | | Change Station
CLOSE
Current Station
Aéroport
Location: Andrews,
Altitude: 1696 ft
Stations météo à proximité

Alt. 1696 ft 35.20 °N, 83.86 °W | Updated 13 minutes ago

Nuageux
Nuageux
75 ° F
Paraît 75 ° F
N
7
Vent Variable Vent de Sud

Aujourd'hui
Haut(e) -- | Bas -- ° F
--% Risque de précip.
Hier
Haut(e) -- | Bas -- ° F
Precip. -- pouce
6:23 AM 8:38 PM
Premier quartier, 52% visible
Pression 30.24 pouce
Visibilité 10.0 Miles terrestres
Nuages Couvert 4700 ft
Point de rosée 62 ° F
Humidité 64%
Précipitations 0.00 pouce
Profondeur de la couche neigeuse Non disponible.
UV 0 sur 12
Pollen 6.70 sur 12
Qualité de l'air Non disponible.
Flu Activity No Activity
METAR KRHP 252315Z AUTO 17006KT 10SM OVC047 24/17 A3024 RMK AO2 T02410168

More Conditions Fewer Conditions

Pression 30.24 pouce
Visibilité 10.0 Miles terrestres
Nuages Couvert 4700 ft
Point de rosée 62 ° F
Humidité 64%
Précipitations 0.00 pouce
Profondeur de la couche neigeuse Non disponible.
UV 0 sur 12
Pollen 6.70 sur 12
Qualité de l'air Non disponible.
Flu Activity No Activity
METAR KRHP 252315Z AUTO 17006KT 10SM OVC047 24/17 A3024 RMK AO2 T02410168

More Conditions Fewer Conditions

10-Day Weather Forecast

Almanac

Astronomie

May. 25, 2015 Lever Coucher
Temps réel
Crépuscule civil
Crépuscule nautique
Crépuscule astronomique
Lune
Durée de lumière visible
Longueur du jour
Tomorrow will be .
, % of the Moon is Illuminated

Extrêmes aujourd'hui

State Highs State Lows

Community

WunderPhotos

Upload Photos

1,824,169 Photos téléchargées !

WunderBlogs® & News

Nearby

Qualité de l'air

  Qualité de l'air Indice de la qualité de l'air Polluant
Not available.

Épaisseur de neige

Station Depth Altitude

Activité sismique

Ville Distance Mag. Time & Date
Minimum magnitude displayed is 2.5.

Températures des eaux côtières

Lieu Température

Stations

Stations météo à proximité

Emplacement de la station Température Refroidissement éolien Point de rosée Humidité Vent Precip. Alt. Mise à jour Type